sensor_id;sensor_type;location;lat;lon;timestamp;P1;durP1;ratioP1;P2;durP2;ratioP2
18695;SDS011;22617;43.690;27.956;2023-05-07T00:01:42;10.67;;;3.63;;
18695;SDS011;22617;43.690;27.956;2023-05-07T00:06:48;5.33;;;3.07;;
18695;SDS011;22617;43.690;27.956;2023-05-07T00:11:57;5.83;;;3.30;;
18695;SDS011;22617;43.690;27.956;2023-05-07T00:17:03;4.67;;;3.07;;
18695;SDS011;22617;43.690;27.956;2023-05-07T00:22:09;4.60;;;3.20;;
18695;SDS011;22617;43.690;27.956;2023-05-07T00:27:24;6.17;;;3.30;;
18695;SDS011;22617;43.690;27.956;2023-05-07T00:32:27;5.43;;;3.50;;
18695;SDS011;22617;43.690;27.956;2023-05-07T00:37:31;5.20;;;3.33;;
18695;SDS011;22617;43.690;27.956;2023-05-07T00:42:39;4.10;;;3.03;;
18695;SDS011;22617;43.690;27.956;2023-05-07T00:47:54;4.90;;;2.67;;
18695;SDS011;22617;43.690;27.956;2023-05-07T00:52:59;3.97;;;3.00;;
18695;SDS011;22617;43.690;27.956;2023-05-07T00:58:09;4.27;;;2.80;;
18695;SDS011;22617;43.690;27.956;2023-05-07T01:03:14;6.03;;;2.87;;
18695;SDS011;22617;43.690;27.956;2023-05-07T01:08:20;4.90;;;2.70;;
18695;SDS011;22617;43.690;27.956;2023-05-07T01:13:43;6.67;;;2.90;;
18695;SDS011;22617;43.690;27.956;2023-05-07T01:18:48;5.30;;;2.90;;
18695;SDS011;22617;43.690;27.956;2023-05-07T01:24:07;5.17;;;3.30;;
18695;SDS011;22617;43.690;27.956;2023-05-07T01:29:11;5.17;;;2.60;;
18695;SDS011;22617;43.690;27.956;2023-05-07T01:34:17;7.37;;;2.53;;
18695;SDS011;22617;43.690;27.956;2023-05-07T01:39:31;39.47;;;4.30;;
18695;SDS011;22617;43.690;27.956;2023-05-07T01:44:36;4.30;;;2.10;;
18695;SDS011;22617;43.690;27.956;2023-05-07T01:49:41;9.03;;;2.70;;
18695;SDS011;22617;43.690;27.956;2023-05-07T01:54:50;3.90;;;2.60;;
18695;SDS011;22617;43.690;27.956;2023-05-07T01:59:58;2.90;;;2.23;;
18695;SDS011;22617;43.690;27.956;2023-05-07T02:05:19;4.83;;;2.43;;
18695;SDS011;22617;43.690;27.956;2023-05-07T02:10:52;3.80;;;2.60;;
18695;SDS011;22617;43.690;27.956;2023-05-07T02:16:01;3.67;;;2.53;;
18695;SDS011;22617;43.690;27.956;2023-05-07T02:21:09;8.73;;;2.73;;
18695;SDS011;22617;43.690;27.956;2023-05-07T02:26:29;4.90;;;2.90;;
18695;SDS011;22617;43.690;27.956;2023-05-07T02:31:37;6.50;;;2.63;;
18695;SDS011;22617;43.690;27.956;2023-05-07T02:36:41;4.03;;;2.37;;
18695;SDS011;22617;43.690;27.956;2023-05-07T02:41:59;5.70;;;2.57;;
18695;SDS011;22617;43.690;27.956;2023-05-07T02:47:05;8.17;;;2.73;;
18695;SDS011;22617;43.690;27.956;2023-05-07T02:52:21;4.17;;;2.50;;
18695;SDS011;22617;43.690;27.956;2023-05-07T02:57:36;7.70;;;3.03;;
18695;SDS011;22617;43.690;27.956;2023-05-07T03:02:42;7.83;;;2.50;;
18695;SDS011;22617;43.690;27.956;2023-05-07T03:07:51;4.77;;;2.50;;
18695;SDS011;22617;43.690;27.956;2023-05-07T03:13:04;4.77;;;2.40;;
18695;SDS011;22617;43.690;27.956;2023-05-07T03:18:14;4.57;;;2.70;;
18695;SDS011;22617;43.690;27.956;2023-05-07T03:23:29;2.87;;;2.07;;
18695;SDS011;22617;43.690;27.956;2023-05-07T03:28:49;6.77;;;2.50;;
18695;SDS011;22617;43.690;27.956;2023-05-07T03:34:00;7.87;;;2.83;;
18695;SDS011;22617;43.690;27.956;2023-05-07T03:39:09;5.53;;;2.50;;
18695;SDS011;22617;43.690;27.956;2023-05-07T03:44:23;5.27;;;2.50;;
18695;SDS011;22617;43.690;27.956;2023-05-07T03:49:36;6.20;;;2.50;;
18695;SDS011;22617;43.690;27.956;2023-05-07T03:54:41;6.70;;;2.70;;
18695;SDS011;22617;43.690;27.956;2023-05-07T03:59:57;7.73;;;2.80;;
18695;SDS011;22617;43.690;27.956;2023-05-07T04:05:11;4.00;;;2.50;;
18695;SDS011;22617;43.690;27.956;2023-05-07T04:10:26;6.30;;;2.53;;
18695;SDS011;22617;43.690;27.956;2023-05-07T04:15:35;3.90;;;2.63;;
18695;SDS011;22617;43.690;27.956;2023-05-07T04:20:49;7.20;;;2.83;;
18695;SDS011;22617;43.690;27.956;2023-05-07T04:25:53;7.30;;;2.40;;
18695;SDS011;22617;43.690;27.956;2023-05-07T04:31:14;6.43;;;2.90;;
18695;SDS011;22617;43.690;27.956;2023-05-07T04:36:30;7.87;;;3.43;;
18695;SDS011;22617;43.690;27.956;2023-05-07T04:41:46;7.97;;;2.67;;
18695;SDS011;22617;43.690;27.956;2023-05-07T04:46:54;7.77;;;3.00;;
18695;SDS011;22617;43.690;27.956;2023-05-07T04:52:07;6.97;;;2.57;;
18695;SDS011;22617;43.690;27.956;2023-05-07T04:57:14;3.57;;;2.47;;
18695;SDS011;22617;43.690;27.956;2023-05-07T05:02:25;6.63;;;3.13;;
18695;SDS011;22617;43.690;27.956;2023-05-07T05:07:33;4.50;;;2.17;;
18695;SDS011;22617;43.690;27.956;2023-05-07T05:12:38;6.57;;;2.17;;
18695;SDS011;22617;43.690;27.956;2023-05-07T05:17:49;4.23;;;2.27;;
18695;SDS011;22617;43.690;27.956;2023-05-07T05:22:56;6.30;;;2.23;;
18695;SDS011;22617;43.690;27.956;2023-05-07T05:28:07;8.70;;;2.57;;
18695;SDS011;22617;43.690;27.956;2023-05-07T05:33:20;4.17;;;2.10;;
18695;SDS011;22617;43.690;27.956;2023-05-07T05:38:38;7.17;;;2.13;;
18695;SDS011;22617;43.690;27.956;2023-05-07T05:43:46;6.00;;;2.27;;
18695;SDS011;22617;43.690;27.956;2023-05-07T05:49:02;5.93;;;2.27;;
18695;SDS011;22617;43.690;27.956;2023-05-07T05:54:07;4.27;;;2.20;;
18695;SDS011;22617;43.690;27.956;2023-05-07T05:59:11;6.37;;;2.40;;
18695;SDS011;22617;43.690;27.956;2023-05-07T06:04:20;4.43;;;2.10;;
18695;SDS011;22617;43.690;27.956;2023-05-07T06:09:31;4.27;;;1.90;;
18695;SDS011;22617;43.690;27.956;2023-05-07T06:14:35;3.97;;;2.07;;
18695;SDS011;22617;43.690;27.956;2023-05-07T06:19:47;3.63;;;2.00;;
18695;SDS011;22617;43.690;27.956;2023-05-07T06:24:54;5.47;;;2.20;;
18695;SDS011;22617;43.690;27.956;2023-05-07T06:29:58;7.83;;;2.07;;
18695;SDS011;22617;43.690;27.956;2023-05-07T06:35:12;6.13;;;2.10;;
18695;SDS011;22617;43.690;27.956;2023-05-07T06:40:18;9.33;;;2.40;;
18695;SDS011;22617;43.690;27.956;2023-05-07T06:45:23;7.43;;;2.50;;
18695;SDS011;22617;43.690;27.956;2023-05-07T06:50:32;4.23;;;2.20;;
18695;SDS011;22617;43.690;27.956;2023-05-07T06:55:37;5.40;;;2.43;;
18695;SDS011;22617;43.690;27.956;2023-05-07T07:00:41;6.60;;;2.00;;
18695;SDS011;22617;43.690;27.956;2023-05-07T07:05:56;5.50;;;2.13;;
18695;SDS011;22617;43.690;27.956;2023-05-07T07:11:00;7.73;;;2.00;;
18695;SDS011;22617;43.690;27.956;2023-05-07T07:16:08;3.40;;;1.90;;
18695;SDS011;22617;43.690;27.956;2023-05-07T07:21:24;7.72;;;2.15;;
18695;SDS011;22617;43.690;27.956;2023-05-07T07:26:30;5.22;;;1.92;;
18695;SDS011;22617;43.690;27.956;2023-05-07T07:31:39;5.47;;;2.13;;
18695;SDS011;22617;43.690;27.956;2023-05-07T07:36:49;5.67;;;2.40;;
18695;SDS011;22617;43.690;27.956;2023-05-07T07:41:55;5.05;;;1.80;;
18695;SDS011;22617;43.690;27.956;2023-05-07T07:47:06;4.38;;;2.38;;
18695;SDS011;22617;43.690;27.956;2023-05-07T07:52:14;5.00;;;1.88;;
18695;SDS011;22617;43.690;27.956;2023-05-07T07:57:21;5.00;;;2.08;;
18695;SDS011;22617;43.690;27.956;2023-05-07T08:02:29;4.32;;;1.67;;
18695;SDS011;22617;43.690;27.956;2023-05-07T08:07:47;4.25;;;1.60;;
18695;SDS011;22617;43.690;27.956;2023-05-07T08:13:02;3.50;;;1.60;;
18695;SDS011;22617;43.690;27.956;2023-05-07T08:18:17;2.53;;;1.38;;
18695;SDS011;22617;43.690;27.956;2023-05-07T08:23:31;2.95;;;1.83;;
18695;SDS011;22617;43.690;27.956;2023-05-07T08:29:00;3.90;;;1.60;;
18695;SDS011;22617;43.690;27.956;2023-05-07T08:40:50;4.78;;;1.70;;
18695;SDS011;22617;43.690;27.956;2023-05-07T08:46:06;3.50;;;1.60;;
18695;SDS011;22617;43.690;27.956;2023-05-07T08:51:20;4.38;;;1.90;;
18695;SDS011;22617;43.690;27.956;2023-05-07T09:10:35;4.88;;;1.70;;
18695;SDS011;22617;43.690;27.956;2023-05-07T09:15:43;2.60;;;1.50;;
18695;SDS011;22617;43.690;27.956;2023-05-07T09:20:51;4.50;;;1.65;;
18695;SDS011;22617;43.690;27.956;2023-05-07T09:26:01;2.58;;;1.58;;
18695;SDS011;22617;43.690;27.956;2023-05-07T09:31:26;3.70;;;1.60;;
18695;SDS011;22617;43.690;27.956;2023-05-07T09:36:35;3.50;;;1.55;;
18695;SDS011;22617;43.690;27.956;2023-05-07T09:41:53;5.40;;;1.60;;
18695;SDS011;22617;43.690;27.956;2023-05-07T09:47:08;9.48;;;3.15;;
18695;SDS011;22617;43.690;27.956;2023-05-07T09:52:20;3.53;;;2.20;;
18695;SDS011;22617;43.690;27.956;2023-05-07T10:02:57;4.63;;;1.60;;
18695;SDS011;22617;43.690;27.956;2023-05-07T10:08:22;2.85;;;1.40;;
18695;SDS011;22617;43.690;27.956;2023-05-07T10:13:53;4.82;;;1.77;;
18695;SDS011;22617;43.690;27.956;2023-05-07T10:19:06;2.10;;;1.30;;
18695;SDS011;22617;43.690;27.956;2023-05-07T10:24:31;2.88;;;1.70;;
18695;SDS011;22617;43.690;27.956;2023-05-07T10:29:49;2.08;;;1.42;;
18695;SDS011;22617;43.690;27.956;2023-05-07T10:35:10;4.28;;;2.10;;
18695;SDS011;22617;43.690;27.956;2023-05-07T10:40:23;7.95;;;1.75;;
18695;SDS011;22617;43.690;27.956;2023-05-07T10:45:40;3.50;;;1.70;;
18695;SDS011;22617;43.690;27.956;2023-05-07T10:50:47;7.10;;;1.90;;
18695;SDS011;22617;43.690;27.956;2023-05-07T11:01:53;3.40;;;1.38;;
18695;SDS011;22617;43.690;27.956;2023-05-07T11:07:20;23.58;;;2.67;;
18695;SDS011;22617;43.690;27.956;2023-05-07T11:12:54;9.00;;;1.55;;
18695;SDS011;22617;43.690;27.956;2023-05-07T11:18:11;11.45;;;1.90;;
18695;SDS011;22617;43.690;27.956;2023-05-07T11:30:46;4.13;;;1.60;;
18695;SDS011;22617;43.690;27.956;2023-05-07T11:35:52;3.05;;;1.30;;
18695;SDS011;22617;43.690;27.956;2023-05-07T11:41:00;1.88;;;1.45;;
18695;SDS011;22617;43.690;27.956;2023-05-07T11:46:09;3.75;;;2.08;;
18695;SDS011;22617;43.690;27.956;2023-05-07T11:51:13;6.93;;;1.58;;
18695;SDS011;22617;43.690;27.956;2023-05-07T11:56:22;87.00;;;7.72;;
18695;SDS011;22617;43.690;27.956;2023-05-07T12:01:27;4.20;;;1.80;;
18695;SDS011;22617;43.690;27.956;2023-05-07T12:06:31;5.45;;;1.60;;
18695;SDS011;22617;43.690;27.956;2023-05-07T12:11:39;1.98;;;1.40;;
18695;SDS011;22617;43.690;27.956;2023-05-07T12:16:44;2.42;;;1.40;;
18695;SDS011;22617;43.690;27.956;2023-05-07T12:21:48;2.08;;;1.40;;
18695;SDS011;22617;43.690;27.956;2023-05-07T12:26:52;4.22;;;1.45;;
18695;SDS011;22617;43.690;27.956;2023-05-07T12:31:57;2.47;;;1.45;;
18695;SDS011;22617;43.690;27.956;2023-05-07T12:37:01;4.00;;;1.50;;
18695;SDS011;22617;43.690;27.956;2023-05-07T12:42:06;3.72;;;1.73;;
18695;SDS011;22617;43.690;27.956;2023-05-07T12:47:11;6.25;;;1.50;;
18695;SDS011;22617;43.690;27.956;2023-05-07T12:52:15;22.88;;;3.42;;
18695;SDS011;22617;43.690;27.956;2023-05-07T12:57:18;4.20;;;1.63;;
18695;SDS011;22617;43.690;27.956;2023-05-07T13:02:33;4.82;;;1.90;;
18695;SDS011;22617;43.690;27.956;2023-05-07T13:07:37;5.57;;;1.50;;
18695;SDS011;22617;43.690;27.956;2023-05-07T13:12:42;3.08;;;1.60;;
18695;SDS011;22617;43.690;27.956;2023-05-07T13:17:47;3.42;;;1.48;;
18695;SDS011;22617;43.690;27.956;2023-05-07T13:22:51;4.68;;;1.45;;
18695;SDS011;22617;43.690;27.956;2023-05-07T13:27:54;10.18;;;1.80;;
18695;SDS011;22617;43.690;27.956;2023-05-07T13:33:13;4.47;;;1.98;;
18695;SDS011;22617;43.690;27.956;2023-05-07T13:38:17;4.22;;;1.65;;
18695;SDS011;22617;43.690;27.956;2023-05-07T13:43:20;3.58;;;1.40;;
18695;SDS011;22617;43.690;27.956;2023-05-07T13:48:25;2.17;;;1.50;;
18695;SDS011;22617;43.690;27.956;2023-05-07T13:53:30;8.15;;;2.40;;
18695;SDS011;22617;43.690;27.956;2023-05-07T13:58:33;3.97;;;1.60;;
18695;SDS011;22617;43.690;27.956;2023-05-07T14:03:47;2.03;;;1.40;;
18695;SDS011;22617;43.690;27.956;2023-05-07T14:08:50;2.28;;;1.48;;
18695;SDS011;22617;43.690;27.956;2023-05-07T14:13:58;2.88;;;1.60;;
18695;SDS011;22617;43.690;27.956;2023-05-07T14:19:17;6.22;;;1.75;;
18695;SDS011;22617;43.690;27.956;2023-05-07T14:24:26;5.50;;;2.10;;
18695;SDS011;22617;43.690;27.956;2023-05-07T14:29:42;6.65;;;2.17;;
18695;SDS011;22617;43.690;27.956;2023-05-07T14:35:01;8.68;;;2.35;;
18695;SDS011;22617;43.690;27.956;2023-05-07T14:40:09;7.50;;;2.70;;
18695;SDS011;22617;43.690;27.956;2023-05-07T14:45:18;12.52;;;2.63;;
18695;SDS011;22617;43.690;27.956;2023-05-07T14:50:28;6.40;;;2.10;;
18695;SDS011;22617;43.690;27.956;2023-05-07T14:55:35;4.28;;;2.17;;
18695;SDS011;22617;43.690;27.956;2023-05-07T15:00:41;5.38;;;2.30;;
18695;SDS011;22617;43.690;27.956;2023-05-07T15:05:50;4.90;;;2.20;;
18695;SDS011;22617;43.690;27.956;2023-05-07T15:11:03;5.40;;;2.00;;
18695;SDS011;22617;43.690;27.956;2023-05-07T15:16:10;5.25;;;2.20;;
18695;SDS011;22617;43.690;27.956;2023-05-07T15:21:21;5.33;;;2.40;;
18695;SDS011;22617;43.690;27.956;2023-05-07T15:26:46;8.93;;;2.70;;
18695;SDS011;22617;43.690;27.956;2023-05-07T15:31:54;17.40;;;2.80;;
18695;SDS011;22617;43.690;27.956;2023-05-07T15:37:05;6.37;;;2.50;;
18695;SDS011;22617;43.690;27.956;2023-05-07T15:42:09;6.13;;;2.47;;
18695;SDS011;22617;43.690;27.956;2023-05-07T15:47:14;5.07;;;2.13;;
18695;SDS011;22617;43.690;27.956;2023-05-07T15:52:22;2.63;;;1.70;;
18695;SDS011;22617;43.690;27.956;2023-05-07T15:57:29;4.27;;;2.10;;
18695;SDS011;22617;43.690;27.956;2023-05-07T16:02:36;4.80;;;2.27;;
18695;SDS011;22617;43.690;27.956;2023-05-07T16:07:46;5.93;;;2.53;;
18695;SDS011;22617;43.690;27.956;2023-05-07T16:12:57;3.73;;;2.00;;
18695;SDS011;22617;43.690;27.956;2023-05-07T16:18:04;7.73;;;2.80;;
18695;SDS011;22617;43.690;27.956;2023-05-07T16:23:13;4.13;;;1.80;;
18695;SDS011;22617;43.690;27.956;2023-05-07T16:28:19;5.60;;;1.93;;
18695;SDS011;22617;43.690;27.956;2023-05-07T16:33:28;5.40;;;2.53;;
18695;SDS011;22617;43.690;27.956;2023-05-07T16:38:45;3.87;;;1.90;;
18695;SDS011;22617;43.690;27.956;2023-05-07T16:43:59;8.33;;;2.57;;
18695;SDS011;22617;43.690;27.956;2023-05-07T16:49:14;3.57;;;2.40;;
18695;SDS011;22617;43.690;27.956;2023-05-07T16:54:46;5.47;;;2.30;;
18695;SDS011;22617;43.690;27.956;2023-05-07T17:00:17;3.13;;;2.27;;
18695;SDS011;22617;43.690;27.956;2023-05-07T17:05:23;5.33;;;2.13;;
18695;SDS011;22617;43.690;27.956;2023-05-07T17:22:09;5.67;;;2.40;;
18695;SDS011;22617;43.690;27.956;2023-05-07T17:27:23;7.93;;;2.60;;
18695;SDS011;22617;43.690;27.956;2023-05-07T17:32:48;6.60;;;2.53;;
18695;SDS011;22617;43.690;27.956;2023-05-07T17:37:53;5.20;;;2.50;;
18695;SDS011;22617;43.690;27.956;2023-05-07T17:42:58;10.70;;;3.43;;
18695;SDS011;22617;43.690;27.956;2023-05-07T17:48:24;8.20;;;3.17;;
18695;SDS011;22617;43.690;27.956;2023-05-07T17:53:28;4.90;;;2.47;;
18695;SDS011;22617;43.690;27.956;2023-05-07T17:58:33;5.50;;;3.00;;
18695;SDS011;22617;43.690;27.956;2023-05-07T18:04:03;9.77;;;3.50;;
18695;SDS011;22617;43.690;27.956;2023-05-07T18:09:10;7.00;;;2.87;;
18695;SDS011;22617;43.690;27.956;2023-05-07T18:14:19;7.03;;;3.00;;
18695;SDS011;22617;43.690;27.956;2023-05-07T18:19:28;9.13;;;2.53;;
18695;SDS011;22617;43.690;27.956;2023-05-07T18:24:35;5.87;;;2.90;;
18695;SDS011;22617;43.690;27.956;2023-05-07T18:29:39;4.53;;;2.87;;
18695;SDS011;22617;43.690;27.956;2023-05-07T18:34:44;5.10;;;2.80;;
18695;SDS011;22617;43.690;27.956;2023-05-07T18:39:48;7.53;;;2.97;;
18695;SDS011;22617;43.690;27.956;2023-05-07T18:44:51;9.83;;;2.80;;
18695;SDS011;22617;43.690;27.956;2023-05-07T18:49:56;7.00;;;2.90;;
18695;SDS011;22617;43.690;27.956;2023-05-07T18:55:01;5.40;;;3.13;;
18695;SDS011;22617;43.690;27.956;2023-05-07T19:00:06;8.23;;;3.37;;
18695;SDS011;22617;43.690;27.956;2023-05-07T19:05:13;8.40;;;3.50;;
18695;SDS011;22617;43.690;27.956;2023-05-07T19:10:16;8.17;;;4.23;;
18695;SDS011;22617;43.690;27.956;2023-05-07T19:15:21;9.23;;;4.07;;
18695;SDS011;22617;43.690;27.956;2023-05-07T19:20:29;7.87;;;3.80;;
18695;SDS011;22617;43.690;27.956;2023-05-07T19:25:32;12.43;;;4.80;;
18695;SDS011;22617;43.690;27.956;2023-05-07T19:30:37;9.10;;;4.83;;
18695;SDS011;22617;43.690;27.956;2023-05-07T19:35:43;10.73;;;3.50;;
18695;SDS011;22617;43.690;27.956;2023-05-07T19:40:47;6.03;;;3.40;;
18695;SDS011;22617;43.690;27.956;2023-05-07T19:45:51;8.83;;;4.10;;
18695;SDS011;22617;43.690;27.956;2023-05-07T19:50:57;9.07;;;4.47;;
18695;SDS011;22617;43.690;27.956;2023-05-07T19:56:01;13.20;;;4.60;;
18695;SDS011;22617;43.690;27.956;2023-05-07T20:01:06;8.13;;;3.80;;
18695;SDS011;22617;43.690;27.956;2023-05-07T20:06:11;6.47;;;3.93;;
18695;SDS011;22617;43.690;27.956;2023-05-07T20:11:15;6.83;;;3.37;;
18695;SDS011;22617;43.690;27.956;2023-05-07T20:16:18;9.67;;;3.97;;
18695;SDS011;22617;43.690;27.956;2023-05-07T20:21:23;7.37;;;4.30;;
18695;SDS011;22617;43.690;27.956;2023-05-07T20:26:27;10.67;;;4.60;;
18695;SDS011;22617;43.690;27.956;2023-05-07T20:31:31;8.53;;;3.80;;
18695;SDS011;22617;43.690;27.956;2023-05-07T20:36:37;10.10;;;4.33;;
18695;SDS011;22617;43.690;27.956;2023-05-07T20:41:41;8.80;;;4.20;;
18695;SDS011;22617;43.690;27.956;2023-05-07T20:46:45;10.53;;;4.93;;
18695;SDS011;22617;43.690;27.956;2023-05-07T20:51:49;9.20;;;4.50;;
18695;SDS011;22617;43.690;27.956;2023-05-07T20:56:53;8.30;;;4.10;;
18695;SDS011;22617;43.690;27.956;2023-05-07T21:01:58;12.00;;;4.67;;
18695;SDS011;22617;43.690;27.956;2023-05-07T21:07:03;7.93;;;4.20;;
18695;SDS011;22617;43.690;27.956;2023-05-07T21:12:08;8.77;;;4.17;;
18695;SDS011;22617;43.690;27.956;2023-05-07T21:17:11;7.67;;;4.60;;
18695;SDS011;22617;43.690;27.956;2023-05-07T21:22:16;9.27;;;4.33;;
18695;SDS011;22617;43.690;27.956;2023-05-07T21:27:20;10.53;;;4.00;;
18695;SDS011;22617;43.690;27.956;2023-05-07T21:32:23;7.70;;;4.07;;
18695;SDS011;22617;43.690;27.956;2023-05-07T21:37:28;7.17;;;3.83;;
18695;SDS011;22617;43.690;27.956;2023-05-07T21:42:32;10.47;;;4.20;;
18695;SDS011;22617;43.690;27.956;2023-05-07T21:47:36;12.10;;;4.60;;
18695;SDS011;22617;43.690;27.956;2023-05-07T21:52:41;10.27;;;4.43;;
18695;SDS011;22617;43.690;27.956;2023-05-07T21:57:45;10.40;;;4.27;;
18695;SDS011;22617;43.690;27.956;2023-05-07T22:03:06;9.87;;;4.50;;
18695;SDS011;22617;43.690;27.956;2023-05-07T22:08:11;7.17;;;3.77;;
18695;SDS011;22617;43.690;27.956;2023-05-07T22:13:14;7.17;;;4.30;;
18695;SDS011;22617;43.690;27.956;2023-05-07T22:18:18;8.20;;;3.67;;
18695;SDS011;22617;43.690;27.956;2023-05-07T22:23:23;8.80;;;3.90;;
18695;SDS011;22617;43.690;27.956;2023-05-07T22:28:27;7.00;;;3.80;;
18695;SDS011;22617;43.690;27.956;2023-05-07T22:33:31;8.43;;;4.07;;
18695;SDS011;22617;43.690;27.956;2023-05-07T22:38:36;8.63;;;4.00;;
18695;SDS011;22617;43.690;27.956;2023-05-07T22:43:39;10.57;;;4.00;;
18695;SDS011;22617;43.690;27.956;2023-05-07T22:48:42;7.83;;;3.50;;
18695;SDS011;22617;43.690;27.956;2023-05-07T22:53:48;5.90;;;3.40;;
18695;SDS011;22617;43.690;27.956;2023-05-07T22:58:51;7.53;;;3.70;;
18695;SDS011;22617;43.690;27.956;2023-05-07T23:03:55;9.90;;;3.60;;
18695;SDS011;22617;43.690;27.956;2023-05-07T23:09:00;9.97;;;3.20;;
18695;SDS011;22617;43.690;27.956;2023-05-07T23:14:03;6.27;;;3.90;;
18695;SDS011;22617;43.690;27.956;2023-05-07T23:19:07;5.03;;;3.50;;
18695;SDS011;22617;43.690;27.956;2023-05-07T23:24:13;6.27;;;3.50;;
18695;SDS011;22617;43.690;27.956;2023-05-07T23:29:17;7.07;;;3.90;;
18695;SDS011;22617;43.690;27.956;2023-05-07T23:34:20;5.37;;;3.20;;
18695;SDS011;22617;43.690;27.956;2023-05-07T23:39:26;8.03;;;4.10;;
18695;SDS011;22617;43.690;27.956;2023-05-07T23:44:30;8.80;;;4.07;;
18695;SDS011;22617;43.690;27.956;2023-05-07T23:49:33;5.47;;;3.10;;
18695;SDS011;22617;43.690;27.956;2023-05-07T23:54:38;8.60;;;4.20;;
18695;SDS011;22617;43.690;27.956;2023-05-07T23:59:41;7.90;;;3.73;;
